Froid, Montana
Current Conditions -  °F | °C
As of 4:52 PM on Wednesday 22 Oct 2014 (Local Time) from KISN Reporting Station
Clear Clear  
Wind Chill: 17°   Ceiling: Unl
Heat Index: 17°   Visibility: 10mi
Dew Point:   Wind: 14mph
Humidity: 37%   Direction: 270°W
Pressure: 29.81"   Gusts: 23mph
Location:  48.33°N, 104.5°W
Report Text: KISN 222252Z AUTO 27012G20KT 10SM CLR 17/02 A2981 RMK AO2 PK WND 28029/2223 SLP098 T01720022
Loading
Personal Weather Stations






























Interactive Weather Map
Tropical Storm Tracking
New forecast layout! Learn more

10-Day Weather Forecast

Advertisements
Track Severe Weather on mobile